createdAt,value
2023-02-19T00:00:38.038Z,9.98
2023-02-19T00:03:40.617Z,9.91
2023-02-19T00:06:43.680Z,9.92
2023-02-19T00:09:47.182Z,9.95
2023-02-19T00:12:48.903Z,10.03
2023-02-19T00:15:50.743Z,10.03
2023-02-19T00:18:53.872Z,9.95
2023-02-19T00:21:55.805Z,9.88
2023-02-19T00:24:58.900Z,9.97
2023-02-19T00:28:01.906Z,9.95
2023-02-19T00:31:06.165Z,10.06
2023-02-19T00:34:09.902Z,10.02
2023-02-19T00:37:11.702Z,9.97
2023-02-19T00:40:15.625Z,9.94
2023-02-19T00:43:17.421Z,9.89
2023-02-19T00:46:23.611Z,9.96
2023-02-19T00:49:25.349Z,9.90
2023-02-19T00:52:27.075Z,9.91
2023-02-19T00:55:30.174Z,9.94
2023-02-19T00:58:33.931Z,9.93
2023-02-19T01:01:36.100Z,9.97
2023-02-19T01:04:37.983Z,9.94
2023-02-19T01:07:39.858Z,9.89
2023-02-19T01:10:44.632Z,9.87
2023-02-19T01:13:46.344Z,9.91
2023-02-19T01:16:48.195Z,9.94
2023-02-19T01:19:49.853Z,9.94
2023-02-19T01:22:51.744Z,9.88
2023-02-19T01:25:54.966Z,9.90
2023-02-19T01:28:57.277Z,9.91
2023-02-19T01:31:59.088Z,9.89
2023-02-19T01:35:00.913Z,9.83
2023-02-19T01:38:02.718Z,9.81
2023-02-19T01:41:08.493Z,9.81
2023-02-19T01:44:44.771Z,9.82
2023-02-19T01:47:48.974Z,9.79
2023-02-19T01:50:55.730Z,9.78
2023-02-19T01:54:01.160Z,9.74
2023-02-19T01:57:08.176Z,9.74
2023-02-19T02:00:15.383Z,9.71
2023-02-19T02:03:17.729Z,9.67
2023-02-19T02:06:23.908Z,9.66
2023-02-19T02:09:47.534Z,9.65
2023-02-19T02:12:56.167Z,9.61
2023-02-19T02:16:06.731Z,9.60
2023-02-19T02:19:23.589Z,9.59
2023-02-19T02:22:29.398Z,9.58
2023-02-19T02:25:53.846Z,9.57
2023-02-19T02:29:20.987Z,9.56
2023-02-19T02:32:26.939Z,9.56
2023-02-19T02:35:34.377Z,9.60
2023-02-19T02:38:38.816Z,9.65
2023-02-19T02:41:42.888Z,9.61
2023-02-19T02:45:05.698Z,9.63
2023-02-19T02:48:20.031Z,9.67
2023-02-19T02:51:27.821Z,9.65
2023-02-19T02:54:55.290Z,9.66
2023-02-19T02:57:57.535Z,9.63
2023-02-19T03:01:23.592Z,9.61
2023-02-19T03:04:33.225Z,9.55
2023-02-19T03:07:38.850Z,9.57
2023-02-19T03:10:43.460Z,9.59
2023-02-19T03:14:24.238Z,9.61
2023-02-19T03:17:49.932Z,9.56
2023-02-19T03:20:57.924Z,9.55
2023-02-19T03:24:18.730Z,9.53
2023-02-19T03:27:22.924Z,9.53
2023-02-19T03:30:32.052Z,9.51
2023-02-19T03:33:34.137Z,9.49
2023-02-19T03:36:44.253Z,9.33
2023-02-19T03:39:46.343Z,9.27
2023-02-19T03:42:59.066Z,9.25
2023-02-19T03:46:09.616Z,9.12
2023-02-19T03:49:18.574Z,9.07
2023-02-19T03:52:30.946Z,9.04
2023-02-19T03:55:39.580Z,9.10
2023-02-19T03:58:51.067Z,9.05
2023-02-19T04:02:01.265Z,8.98
2023-02-19T04:05:07.460Z,8.99
2023-02-19T04:08:13.932Z,8.97
2023-02-19T04:11:21.280Z,8.92
2023-02-19T04:14:27.907Z,8.91
2023-02-19T04:17:34.392Z,8.89
2023-02-19T04:20:40.929Z,8.86
2023-02-19T04:23:45.599Z,8.86
2023-02-19T04:26:47.599Z,8.84
2023-02-19T04:29:49.255Z,8.75
2023-02-19T04:32:50.968Z,8.64
2023-02-19T04:35:52.669Z,8.59
2023-02-19T04:38:55.773Z,8.55
2023-02-19T04:41:57.455Z,8.49
2023-02-19T04:44:59.148Z,8.43
2023-02-19T04:48:00.783Z,8.42
2023-02-19T04:51:05.430Z,8.42
2023-02-19T04:54:08.595Z,8.43
2023-02-19T04:57:10.185Z,8.46
2023-02-19T05:00:13.038Z,8.47
2023-02-19T05:03:14.795Z,8.43
2023-02-19T05:06:16.683Z,8.42
2023-02-19T05:09:19.954Z,8.43
2023-02-19T05:12:21.596Z,8.42
2023-02-19T05:15:23.255Z,8.39
2023-02-19T05:18:25.161Z,8.38
2023-02-19T05:21:26.858Z,8.35
2023-02-19T05:24:31.482Z,8.31
2023-02-19T05:27:33.217Z,8.30
2023-02-19T05:30:35.505Z,8.31
2023-02-19T05:33:38.106Z,8.32
2023-02-19T05:36:39.830Z,8.32
2023-02-19T05:39:42.934Z,8.34
2023-02-19T05:42:44.630Z,8.33
2023-02-19T05:45:46.264Z,8.35
2023-02-19T05:48:48.189Z,8.33
2023-02-19T05:51:50.440Z,8.30
2023-02-19T05:54:53.442Z,8.27
2023-02-19T05:57:55.517Z,8.33
2023-02-19T06:00:57.127Z,8.29
2023-02-19T06:03:58.871Z,8.26
2023-02-19T06:07:00.521Z,8.25
2023-02-19T06:10:03.628Z,8.23
2023-02-19T06:13:05.390Z,8.22
2023-02-19T06:16:07.895Z,8.17
2023-02-19T06:19:09.899Z,8.18
2023-02-19T06:22:11.590Z,8.19
2023-02-19T06:25:14.713Z,8.22
2023-02-19T06:28:16.344Z,8.23
2023-02-19T06:31:20.013Z,8.21
2023-02-19T06:34:21.727Z,8.23
2023-02-19T06:37:23.412Z,8.25
2023-02-19T06:40:26.375Z,8.28
2023-02-19T06:43:28.614Z,8.30
2023-02-19T06:46:30.329Z,8.29
2023-02-19T06:49:32.078Z,8.33
2023-02-19T06:52:33.764Z,8.32
2023-02-19T06:55:36.754Z,8.31
2023-02-19T06:58:38.428Z,8.32
2023-02-19T07:01:40.482Z,8.28
2023-02-19T07:04:42.089Z,8.30
2023-02-19T07:07:45.573Z,8.30
2023-02-19T07:10:56.324Z,8.23
2023-02-19T07:14:00.348Z,8.26
2023-02-19T07:17:02.032Z,8.34
2023-02-19T07:20:04.187Z,8.36
2023-02-19T07:23:05.879Z,8.36
2023-02-19T07:26:11.120Z,8.37
2023-02-19T07:29:12.777Z,8.38
2023-02-19T07:32:14.425Z,8.41
2023-02-19T07:35:16.113Z,8.45
2023-02-19T07:38:18.377Z,8.54
2023-02-19T07:41:21.689Z,8.61
2023-02-19T07:44:23.588Z,8.69
2023-02-19T07:47:25.378Z,8.76
2023-02-19T07:50:27.281Z,8.81
2023-02-19T07:53:29.526Z,8.85
2023-02-19T07:56:32.603Z,8.88
2023-02-19T07:59:34.583Z,8.94
2023-02-19T08:02:55.131Z,9.02
2023-02-19T08:05:57.681Z,9.11
2023-02-19T08:08:59.317Z,9.25
2023-02-19T08:12:20.906Z,9.34
2023-02-19T08:15:22.637Z,9.51
2023-02-19T08:18:26.327Z,9.60
2023-02-19T08:21:28.168Z,9.68
2023-02-19T08:24:31.120Z,9.76
2023-02-19T08:27:34.166Z,9.85
2023-02-19T08:30:38.138Z,9.83
2023-02-19T08:33:40.212Z,9.99
2023-02-19T08:36:42.564Z,10.05
2023-02-19T08:39:44.270Z,10.14
2023-02-19T08:42:47.486Z,10.10
2023-02-19T08:45:52.657Z,10.13
2023-02-19T08:48:54.348Z,10.21
2023-02-19T08:51:56.138Z,10.23
2023-02-19T08:54:58.236Z,10.32
2023-02-19T08:58:01.630Z,10.38
2023-02-19T09:01:03.882Z,10.41
2023-02-19T09:04:05.534Z,10.40
2023-02-19T09:07:09.433Z,10.36
2023-02-19T09:10:12.831Z,10.39
2023-02-19T09:13:15.869Z,10.42
2023-02-19T09:16:20.638Z,10.38
2023-02-19T09:19:22.404Z,10.36
2023-02-19T09:22:24.092Z,10.48
2023-02-19T09:25:26.969Z,10.50
2023-02-19T09:28:30.068Z,10.48
2023-02-19T09:31:32.562Z,10.50
2023-02-19T09:34:34.339Z,10.38
2023-02-19T09:37:36.136Z,10.55
2023-02-19T09:40:38.798Z,10.61
2023-02-19T09:43:42.919Z,10.71
2023-02-19T09:46:47.735Z,10.83
2023-02-19T09:49:52.261Z,10.77
2023-02-19T09:52:56.924Z,10.75
2023-02-19T09:55:59.433Z,10.92
2023-02-19T09:59:03.001Z,11.00
2023-02-19T10:02:11.684Z,11.02
2023-02-19T10:05:16.204Z,11.26
2023-02-19T10:08:20.057Z,11.02
2023-02-19T10:11:23.320Z,11.07
2023-02-19T10:14:32.609Z,11.24
2023-02-19T10:17:35.558Z,11.07
2023-02-19T10:20:37.335Z,11.32
2023-02-19T10:23:40.963Z,11.10
2023-02-19T10:26:42.709Z,11.24
2023-02-19T10:29:48.325Z,11.67
2023-02-19T10:33:08.436Z,11.52
2023-02-19T10:36:26.509Z,11.41
2023-02-19T10:39:40.090Z,11.21
2023-02-19T10:42:46.006Z,11.31
2023-02-19T10:45:50.460Z,11.77
2023-02-19T10:48:55.129Z,11.72
2023-02-19T10:55:28.926Z,11.69
2023-02-19T10:58:34.301Z,11.65
2023-02-19T11:01:52.779Z,11.44
2023-02-19T11:05:05.582Z,11.66
2023-02-19T11:08:22.024Z,11.73
2023-02-19T11:11:27.234Z,11.71
2023-02-19T11:14:31.544Z,11.48
2023-02-19T11:17:34.698Z,11.58
2023-02-19T11:20:36.578Z,11.70
2023-02-19T11:23:44.808Z,11.61
2023-02-19T11:26:46.697Z,11.65
2023-02-19T11:29:48.536Z,11.71
2023-02-19T11:32:51.585Z,11.67
2023-02-19T11:36:00.434Z,11.82
2023-02-19T11:39:21.793Z,11.81
2023-02-19T11:42:53.468Z,12.16
2023-02-19T11:46:01.834Z,12.48
2023-02-19T11:49:19.541Z,12.58
2023-02-19T11:52:33.035Z,12.17
2023-02-19T11:55:47.623Z,12.01
2023-02-19T11:59:00.735Z,11.96
2023-02-19T12:02:33.527Z,11.73
2023-02-19T12:05:49.576Z,10.57
2023-02-19T12:09:16.937Z,9.77
2023-02-19T12:12:32.877Z,9.47
2023-02-19T12:16:00.830Z,9.70
2023-02-19T12:19:16.530Z,10.26
2023-02-19T12:22:28.285Z,10.89
2023-02-19T12:25:42.613Z,11.29
2023-02-19T12:29:01.606Z,11.37
2023-02-19T12:32:21.412Z,11.49
2023-02-19T12:35:44.761Z,11.98
2023-02-19T12:38:57.205Z,11.87
2023-02-19T12:42:06.947Z,12.36
2023-02-19T12:45:18.296Z,12.39
2023-02-19T12:48:29.461Z,12.19
2023-02-19T12:51:39.505Z,12.95
2023-02-19T12:54:46.258Z,13.05
2023-02-19T12:57:48.645Z,12.49
2023-02-19T13:00:54.296Z,12.38
2023-02-19T13:04:17.780Z,12.58
2023-02-19T13:07:24.087Z,12.21
2023-02-19T13:10:32.323Z,12.47
2023-02-19T13:13:38.560Z,12.29
2023-02-19T13:16:45.598Z,12.28
2023-02-19T13:19:50.391Z,12.48
2023-02-19T13:23:15.847Z,12.53
2023-02-19T13:26:42.774Z,12.49
2023-02-19T13:29:57.295Z,12.50
2023-02-19T13:33:05.457Z,12.44
2023-02-19T13:36:14.251Z,12.44
2023-02-19T13:39:19.502Z,12.08
2023-02-19T13:42:27.198Z,12.03
2023-02-19T13:45:34.381Z,12.12
2023-02-19T13:48:37.991Z,12.29
2023-02-19T13:51:49.223Z,12.45
2023-02-19T13:54:51.288Z,12.58
2023-02-19T13:57:54.308Z,12.34
2023-02-19T14:00:56.068Z,12.20
2023-02-19T14:04:09.238Z,12.18
2023-02-19T14:07:36.322Z,12.17
2023-02-19T14:11:02.452Z,12.39
2023-02-19T14:14:25.572Z,12.38
2023-02-19T14:17:37.298Z,12.44
2023-02-19T14:20:43.479Z,12.09
2023-02-19T14:23:51.660Z,12.04
2023-02-19T14:26:56.914Z,12.01
2023-02-19T14:30:00.455Z,12.01
2023-02-19T14:33:10.634Z,12.06
2023-02-19T14:36:20.153Z,12.10
2023-02-19T14:39:24.832Z,12.13
2023-02-19T14:42:33.324Z,12.19
2023-02-19T14:45:41.943Z,12.11
2023-02-19T14:48:47.632Z,11.99
2023-02-19T14:51:53.383Z,12.05
2023-02-19T14:54:58.616Z,11.87
2023-02-19T14:58:04.871Z,11.92
2023-02-19T15:01:25.597Z,11.86
2023-02-19T15:04:31.217Z,11.80
2023-02-19T15:07:34.107Z,11.85
2023-02-19T15:10:36.683Z,11.66
2023-02-19T15:13:45.484Z,11.63
2023-02-19T15:16:50.582Z,11.58
2023-02-19T15:19:52.503Z,11.62
2023-02-19T15:22:56.144Z,11.58
2023-02-19T15:25:58.512Z,11.57
2023-02-19T15:29:01.857Z,11.51
2023-02-19T15:32:17.133Z,11.51
2023-02-19T15:35:21.367Z,11.54
2023-02-19T15:38:23.767Z,11.51
2023-02-19T15:41:28.703Z,11.51
2023-02-19T15:44:38.693Z,11.48
2023-02-19T15:47:45.944Z,11.46
2023-02-19T15:50:52.449Z,11.42
2023-02-19T15:53:58.685Z,11.38
2023-02-19T15:57:04.549Z,11.41
2023-02-19T16:00:15.320Z,11.36
2023-02-19T16:03:20.872Z,11.32
2023-02-19T16:06:24.186Z,11.24
2023-02-19T16:09:30.777Z,11.26
2023-02-19T16:12:32.657Z,11.21
2023-02-19T16:15:34.781Z,11.12
2023-02-19T16:18:37.952Z,11.10
2023-02-19T16:21:43.683Z,11.05
2023-02-19T16:24:47.058Z,10.96
2023-02-19T16:27:48.823Z,10.90
2023-02-19T16:30:56.753Z,10.80
2023-02-19T16:34:16.141Z,10.72
2023-02-19T16:37:35.865Z,10.70
2023-02-19T16:41:06.143Z,10.70
2023-02-19T16:44:35.686Z,10.65
2023-02-19T16:47:41.325Z,10.54
2023-02-19T16:50:46.233Z,10.46
2023-02-19T16:53:47.701Z,10.39
2023-02-19T16:56:49.420Z,10.30
2023-02-19T16:59:51.104Z,10.42
2023-02-19T17:02:55.256Z,10.35
2023-02-19T17:05:58.270Z,10.34
2023-02-19T17:09:00.113Z,10.32
2023-02-19T17:12:01.829Z,10.24
2023-02-19T17:15:03.826Z,10.36
2023-02-19T17:18:05.648Z,10.38
2023-02-19T17:21:14.761Z,10.33
2023-02-19T17:24:17.319Z,10.26
2023-02-19T17:27:19.455Z,10.27
2023-02-19T17:30:26.814Z,10.34
2023-02-19T17:33:28.544Z,10.29
2023-02-19T17:36:32.490Z,10.24
2023-02-19T17:39:34.188Z,10.28
2023-02-19T17:42:35.889Z,10.24
2023-02-19T17:45:39.402Z,10.24
2023-02-19T17:48:41.745Z,10.18
2023-02-19T17:51:44.831Z,10.17
2023-02-19T17:54:46.598Z,10.09
2023-02-19T17:57:49.883Z,10.11
2023-02-19T18:00:51.733Z,10.04
2023-02-19T18:03:53.618Z,10.10
2023-02-19T18:06:56.707Z,10.14
2023-02-19T18:09:58.402Z,10.02
2023-02-19T18:13:00.185Z,10.11
2023-02-19T18:16:01.856Z,10.08
2023-02-19T18:19:03.996Z,10.03
2023-02-19T18:22:06.976Z,10.05
2023-02-19T18:25:10.082Z,9.99
2023-02-19T18:28:11.715Z,9.97
2023-02-19T18:31:13.859Z,9.99
2023-02-19T18:34:18.272Z,9.90
2023-02-19T18:37:22.563Z,9.94
2023-02-19T18:40:28.518Z,9.87
2023-02-19T18:43:30.183Z,9.84
2023-02-19T18:46:32.379Z,9.73
2023-02-19T18:49:34.487Z,9.74
2023-02-19T18:52:37.510Z,9.85
2023-02-19T18:55:39.316Z,9.78
2023-02-19T18:58:41.036Z,9.79
2023-02-19T19:01:43.215Z,9.76
2023-02-19T19:04:50.036Z,9.79
2023-02-19T19:07:54.370Z,9.79
2023-02-19T19:10:56.119Z,9.72
2023-02-19T19:13:58.321Z,9.67
2023-02-19T19:17:00.325Z,9.68
2023-02-19T19:20:02.096Z,9.80
2023-02-19T19:23:06.290Z,9.81
2023-02-19T19:26:08.404Z,9.80
2023-02-19T19:29:10.035Z,9.78
2023-02-19T19:32:12.320Z,9.80
2023-02-19T19:35:15.895Z,9.74
2023-02-19T19:38:18.890Z,9.65
2023-02-19T19:41:21.378Z,9.58
2023-02-19T19:44:23.483Z,9.62
2023-02-19T19:47:25.213Z,9.60
2023-02-19T19:50:27.124Z,9.58
2023-02-19T19:53:30.263Z,9.56
2023-02-19T19:56:32.118Z,9.55
2023-02-19T19:59:33.884Z,9.57
2023-02-19T20:02:35.550Z,9.53
2023-02-19T20:05:37.197Z,9.52
2023-02-19T20:08:40.274Z,9.39
2023-02-19T20:11:45.730Z,9.50
2023-02-19T20:14:47.420Z,9.48
2023-02-19T20:17:49.680Z,9.46
2023-02-19T20:20:51.348Z,9.47
2023-02-19T20:23:54.509Z,9.43
2023-02-19T20:27:00.534Z,9.41
2023-02-19T20:30:02.728Z,9.42
2023-02-19T20:33:04.588Z,9.37
2023-02-19T20:36:07.508Z,9.37
2023-02-19T20:39:10.573Z,9.39
2023-02-19T20:42:16.691Z,9.36
2023-02-19T20:45:18.701Z,9.33
2023-02-19T20:48:20.408Z,9.29
2023-02-19T20:51:22.104Z,9.19
2023-02-19T20:54:27.607Z,9.27
2023-02-19T20:57:29.361Z,9.25
2023-02-19T21:00:31.040Z,9.27
2023-02-19T21:03:33.020Z,9.32
2023-02-19T21:06:34.964Z,9.33
2023-02-19T21:09:38.018Z,9.28
2023-02-19T21:12:39.763Z,9.31
2023-02-19T21:15:41.511Z,9.35
2023-02-19T21:18:43.234Z,9.36
2023-02-19T21:21:44.880Z,9.27
2023-02-19T21:24:51.896Z,9.23
2023-02-19T21:27:53.637Z,9.22
2023-02-19T21:30:55.433Z,9.27
2023-02-19T21:33:57.093Z,9.18
2023-02-19T21:36:59.768Z,9.07
2023-02-19T21:40:02.864Z,9.03
2023-02-19T21:43:04.511Z,9.13
2023-02-19T21:46:06.249Z,9.14
2023-02-19T21:49:08.252Z,9.15
2023-02-19T21:52:11.373Z,9.04
2023-02-19T21:55:14.641Z,9.06
2023-02-19T21:58:16.287Z,9.04
2023-02-19T22:01:20.428Z,9.08
2023-02-19T22:04:24.432Z,9.04
2023-02-19T22:07:26.256Z,9.12
2023-02-19T22:10:29.764Z,9.04
2023-02-19T22:13:31.444Z,9.05
2023-02-19T22:16:33.156Z,9.07
2023-02-19T22:19:34.954Z,9.09
2023-02-19T22:22:36.614Z,9.06
2023-02-19T22:25:39.583Z,8.97
2023-02-19T22:28:41.317Z,8.94
2023-02-19T22:31:43.496Z,9.02
2023-02-19T22:34:45.186Z,8.99
2023-02-19T22:37:46.826Z,8.92
2023-02-19T22:40:50.166Z,8.98
2023-02-19T22:43:54.805Z,8.97
2023-02-19T22:46:56.616Z,8.97
2023-02-19T22:49:58.221Z,8.94
2023-02-19T22:52:59.918Z,8.94
2023-02-19T22:56:02.948Z,8.81
2023-02-19T22:59:04.568Z,8.90
2023-02-19T23:02:06.610Z,8.84
2023-02-19T23:05:08.327Z,8.93
2023-02-19T23:08:10.072Z,8.87
2023-02-19T23:11:13.358Z,8.90
2023-02-19T23:14:17.515Z,8.92
2023-02-19T23:17:19.539Z,8.88
2023-02-19T23:20:21.200Z,8.94
2023-02-19T23:23:22.881Z,9.01
2023-02-19T23:26:26.215Z,8.91
2023-02-19T23:29:28.125Z,8.92
2023-02-19T23:32:29.881Z,8.98
2023-02-19T23:35:31.940Z,8.96
2023-02-19T23:38:33.713Z,9.04
2023-02-19T23:41:36.988Z,9.10
2023-02-19T23:44:38.712Z,9.01
2023-02-19T23:47:40.403Z,8.90
2023-02-19T23:50:42.156Z,8.85
2023-02-19T23:53:43.842Z,8.88
2023-02-19T23:56:46.829Z,8.98
2023-02-19T23:59:49.139Z,8.95
